sensor_id;sensor_type;location;lat;lon;timestamp;P1;durP1;ratioP1;P2;durP2;ratioP2
49980;SDS011;35871;51.594;7.138;2023-09-18T05:53:53;10.40;;;3.75;;
49980;SDS011;35871;51.594;7.138;2023-09-18T06:10:25;6.25;;;3.47;;
49980;SDS011;35871;51.594;7.138;2023-09-18T06:21:29;7.80;;;3.33;;
49980;SDS011;35871;51.594;7.138;2023-09-18T06:26:34;7.18;;;3.25;;
49980;SDS011;35871;51.594;7.138;2023-09-18T06:37:28;8.02;;;3.38;;
49980;SDS011;35871;51.594;7.138;2023-09-18T06:53:56;8.57;;;3.15;;
49980;SDS011;35871;51.594;7.138;2023-09-18T06:59:02;7.10;;;3.20;;
49980;SDS011;35871;51.594;7.138;2023-09-18T07:10:05;5.47;;;2.88;;
49980;SDS011;35871;51.594;7.138;2023-09-18T07:15:15;5.47;;;2.80;;
49980;SDS011;35871;51.594;7.138;2023-09-18T07:20:22;5.38;;;3.00;;
49980;SDS011;35871;51.594;7.138;2023-09-18T07:25:32;4.90;;;2.60;;
49980;SDS011;35871;51.594;7.138;2023-09-18T07:30:33;5.10;;;2.90;;
49980;SDS011;35871;51.594;7.138;2023-09-18T07:35:47;6.65;;;2.67;;
49980;SDS011;35871;51.594;7.138;2023-09-18T07:52:45;5.20;;;2.42;;
49980;SDS011;35871;51.594;7.138;2023-09-18T07:57:47;4.50;;;2.40;;
49980;SDS011;35871;51.594;7.138;2023-09-18T08:14:56;4.57;;;2.47;;
49980;SDS011;35871;51.594;7.138;2023-09-18T08:20:42;6.25;;;2.75;;
49980;SDS011;35871;51.594;7.138;2023-09-18T08:26:00;3.95;;;2.30;;
49980;SDS011;35871;51.594;7.138;2023-09-18T08:31:42;3.70;;;2.25;;
49980;SDS011;35871;51.594;7.138;2023-09-18T08:36:48;4.70;;;2.42;;
49980;SDS011;35871;51.594;7.138;2023-09-18T08:42:27;6.68;;;2.50;;
49980;SDS011;35871;51.594;7.138;2023-09-18T08:47:49;4.22;;;2.00;;
49980;SDS011;35871;51.594;7.138;2023-09-18T08:53:03;3.67;;;2.17;;
49980;SDS011;35871;51.594;7.138;2023-09-18T08:58:05;3.40;;;1.63;;
49980;SDS011;35871;51.594;7.138;2023-09-18T09:03:10;4.95;;;1.80;;
49980;SDS011;35871;51.594;7.138;2023-09-18T09:08:35;3.83;;;2.03;;
49980;SDS011;35871;51.594;7.138;2023-09-18T09:14:12;4.05;;;1.88;;
49980;SDS011;35871;51.594;7.138;2023-09-18T09:19:30;5.93;;;1.58;;
49980;SDS011;35871;51.594;7.138;2023-09-18T09:24:37;2.92;;;1.70;;
49980;SDS011;35871;51.594;7.138;2023-09-18T09:29:57;4.07;;;1.90;;
49980;SDS011;35871;51.594;7.138;2023-09-18T09:35:01;3.50;;;1.60;;
49980;SDS011;35871;51.594;7.138;2023-09-18T09:40:18;3.53;;;1.63;;
49980;SDS011;35871;51.594;7.138;2023-09-18T09:45:44;3.10;;;1.70;;
49980;SDS011;35871;51.594;7.138;2023-09-18T09:51:15;2.38;;;1.60;;
49980;SDS011;35871;51.594;7.138;2023-09-18T09:56:54;2.20;;;1.40;;
49980;SDS011;35871;51.594;7.138;2023-09-18T10:02:45;2.92;;;1.38;;
49980;SDS011;35871;51.594;7.138;2023-09-18T10:07:57;4.40;;;1.73;;
49980;SDS011;35871;51.594;7.138;2023-09-18T10:13:17;4.22;;;1.60;;
49980;SDS011;35871;51.594;7.138;2023-09-18T10:29:13;3.05;;;1.70;;
49980;SDS011;35871;51.594;7.138;2023-09-18T10:34:50;2.58;;;1.50;;
49980;SDS011;35871;51.594;7.138;2023-09-18T10:40:19;5.03;;;2.10;;
49980;SDS011;35871;51.594;7.138;2023-09-18T10:45:39;4.43;;;1.70;;
49980;SDS011;35871;51.594;7.138;2023-09-18T10:50:46;2.85;;;1.50;;
49980;SDS011;35871;51.594;7.138;2023-09-18T10:55:50;5.95;;;2.97;;
49980;SDS011;35871;51.594;7.138;2023-09-18T11:01:34;2.65;;;1.33;;
49980;SDS011;35871;51.594;7.138;2023-09-18T11:12:04;2.42;;;1.75;;
49980;SDS011;35871;51.594;7.138;2023-09-18T11:17:41;4.40;;;2.13;;
49980;SDS011;35871;51.594;7.138;2023-09-18T11:22:47;5.28;;;2.30;;
49980;SDS011;35871;51.594;7.138;2023-09-18T11:27:54;4.38;;;1.92;;
49980;SDS011;35871;51.594;7.138;2023-09-18T11:33:34;3.65;;;1.85;;
49980;SDS011;35871;51.594;7.138;2023-09-18T11:38:56;4.10;;;2.70;;
49980;SDS011;35871;51.594;7.138;2023-09-18T11:49:18;4.28;;;2.20;;
49980;SDS011;35871;51.594;7.138;2023-09-18T11:54:44;3.72;;;2.40;;
49980;SDS011;35871;51.594;7.138;2023-09-18T11:59:47;4.07;;;2.50;;
49980;SDS011;35871;51.594;7.138;2023-09-18T12:04:53;3.42;;;2.45;;
49980;SDS011;35871;51.594;7.138;2023-09-18T12:09:55;4.38;;;1.88;;
49980;SDS011;35871;51.594;7.138;2023-09-18T12:14:57;3.70;;;2.53;;
49980;SDS011;35871;51.594;7.138;2023-09-18T12:19:59;4.93;;;2.28;;
49980;SDS011;35871;51.594;7.138;2023-09-18T12:25:10;4.22;;;1.92;;
49980;SDS011;35871;51.594;7.138;2023-09-18T12:30:12;4.43;;;2.10;;
49980;SDS011;35871;51.594;7.138;2023-09-18T12:35:28;4.82;;;2.22;;
49980;SDS011;35871;51.594;7.138;2023-09-18T12:40:30;4.68;;;2.20;;
49980;SDS011;35871;51.594;7.138;2023-09-18T12:45:34;3.97;;;2.05;;
49980;SDS011;35871;51.594;7.138;2023-09-18T12:50:36;4.43;;;1.65;;
49980;SDS011;35871;51.594;7.138;2023-09-18T12:55:37;4.43;;;2.47;;
49980;SDS011;35871;51.594;7.138;2023-09-18T13:00:44;2.72;;;1.90;;
49980;SDS011;35871;51.594;7.138;2023-09-18T13:05:48;3.60;;;1.95;;
49980;SDS011;35871;51.594;7.138;2023-09-18T13:11:06;2.70;;;1.80;;
49980;SDS011;35871;51.594;7.138;2023-09-18T13:16:08;3.42;;;1.80;;
49980;SDS011;35871;51.594;7.138;2023-09-18T13:21:18;5.40;;;2.20;;
49980;SDS011;35871;51.594;7.138;2023-09-18T13:26:24;2.60;;;1.77;;
49980;SDS011;35871;51.594;7.138;2023-09-18T13:31:25;3.63;;;1.70;;
49980;SDS011;35871;51.594;7.138;2023-09-18T13:36:28;3.08;;;1.90;;
49980;SDS011;35871;51.594;7.138;2023-09-18T13:41:37;3.15;;;1.70;;
49980;SDS011;35871;51.594;7.138;2023-09-18T13:46:39;4.55;;;1.65;;
49980;SDS011;35871;51.594;7.138;2023-09-18T13:51:53;2.83;;;1.63;;
49980;SDS011;35871;51.594;7.138;2023-09-18T13:56:54;4.25;;;2.20;;
49980;SDS011;35871;51.594;7.138;2023-09-18T14:02:11;6.00;;;1.70;;
49980;SDS011;35871;51.594;7.138;2023-09-18T14:07:12;2.65;;;1.80;;
49980;SDS011;35871;51.594;7.138;2023-09-18T14:12:39;4.40;;;1.90;;
49980;SDS011;35871;51.594;7.138;2023-09-18T14:18:12;3.30;;;2.05;;
49980;SDS011;35871;51.594;7.138;2023-09-18T14:23:13;6.25;;;2.20;;
49980;SDS011;35871;51.594;7.138;2023-09-18T14:28:30;4.20;;;1.80;;
49980;SDS011;35871;51.594;7.138;2023-09-18T14:33:48;3.38;;;1.95;;
49980;SDS011;35871;51.594;7.138;2023-09-18T14:38:49;4.05;;;1.90;;
49980;SDS011;35871;51.594;7.138;2023-09-18T14:43:50;4.63;;;2.25;;
49980;SDS011;35871;51.594;7.138;2023-09-18T14:48:51;4.57;;;1.80;;
49980;SDS011;35871;51.594;7.138;2023-09-18T14:53:52;4.97;;;2.50;;
49980;SDS011;35871;51.594;7.138;2023-09-18T14:58:54;2.67;;;1.67;;
49980;SDS011;35871;51.594;7.138;2023-09-18T15:03:55;3.95;;;1.70;;
49980;SDS011;35871;51.594;7.138;2023-09-18T15:08:56;2.67;;;1.90;;
49980;SDS011;35871;51.594;7.138;2023-09-18T15:13:57;3.13;;;1.90;;
49980;SDS011;35871;51.594;7.138;2023-09-18T15:19:04;3.00;;;1.80;;
49980;SDS011;35871;51.594;7.138;2023-09-18T15:24:07;5.15;;;1.70;;
49980;SDS011;35871;51.594;7.138;2023-09-18T15:29:13;3.28;;;1.90;;
49980;SDS011;35871;51.594;7.138;2023-09-18T15:34:16;4.63;;;1.80;;
49980;SDS011;35871;51.594;7.138;2023-09-18T15:39:20;3.13;;;2.00;;
49980;SDS011;35871;51.594;7.138;2023-09-18T15:44:22;3.33;;;1.65;;
49980;SDS011;35871;51.594;7.138;2023-09-18T15:49:23;4.85;;;1.75;;
49980;SDS011;35871;51.594;7.138;2023-09-18T15:54:25;3.45;;;2.25;;
49980;SDS011;35871;51.594;7.138;2023-09-18T15:59:26;2.80;;;2.30;;
49980;SDS011;35871;51.594;7.138;2023-09-18T16:04:32;2.22;;;1.52;;
49980;SDS011;35871;51.594;7.138;2023-09-18T16:09:34;4.00;;;1.80;;
49980;SDS011;35871;51.594;7.138;2023-09-18T16:14:36;2.63;;;1.52;;
49980;SDS011;35871;51.594;7.138;2023-09-18T16:19:37;3.58;;;1.95;;
49980;SDS011;35871;51.594;7.138;2023-09-18T16:24:38;3.53;;;1.88;;
49980;SDS011;35871;51.594;7.138;2023-09-18T16:29:40;3.45;;;1.60;;
49980;SDS011;35871;51.594;7.138;2023-09-18T16:46:09;4.03;;;1.90;;
49980;SDS011;35871;51.594;7.138;2023-09-18T18:00:16;7.30;;;1.80;;
49980;SDS011;35871;51.594;7.138;2023-09-18T18:06:05;4.15;;;1.70;;
49980;SDS011;35871;51.594;7.138;2023-09-18T18:16:49;4.82;;;1.80;;
49980;SDS011;35871;51.594;7.138;2023-09-18T18:22:04;2.45;;;1.08;;
49980;SDS011;35871;51.594;7.138;2023-09-18T18:27:19;3.25;;;1.75;;
49980;SDS011;35871;51.594;7.138;2023-09-18T18:32:21;2.90;;;1.63;;
49980;SDS011;35871;51.594;7.138;2023-09-18T18:37:28;4.05;;;2.00;;
49980;SDS011;35871;51.594;7.138;2023-09-18T18:42:31;4.05;;;1.80;;
49980;SDS011;35871;51.594;7.138;2023-09-18T18:47:39;3.42;;;1.80;;
49980;SDS011;35871;51.594;7.138;2023-09-18T18:59:17;3.15;;;1.52;;
49980;SDS011;35871;51.594;7.138;2023-09-18T19:09:58;3.63;;;1.58;;
